createdAt,value
2022-11-06T00:00:45.181Z,15.77
2022-11-06T00:03:14.059Z,15.23
2022-11-06T00:06:01.093Z,15.60
2022-11-06T00:08:32.505Z,14.43
2022-11-06T00:11:01.139Z,14.67
2022-11-06T00:13:29.862Z,14.20
2022-11-06T00:15:59.318Z,13.80
2022-11-06T00:18:28.531Z,16.17
2022-11-06T00:20:57.741Z,14.47
2022-11-06T00:23:26.234Z,13.83
2022-11-06T00:25:56.723Z,14.57
2022-11-06T00:28:26.198Z,14.60
2022-11-06T00:31:03.154Z,15.10
2022-11-06T00:33:31.589Z,15.00
2022-11-06T00:36:00.386Z,12.70
2022-11-06T00:38:28.785Z,15.57
2022-11-06T00:40:58.669Z,13.03
2022-11-06T00:43:27.118Z,14.63
2022-11-06T00:45:55.474Z,13.17
2022-11-06T00:48:23.881Z,16.27
2022-11-06T00:50:52.315Z,14.87
2022-11-06T00:53:20.790Z,16.67
2022-11-06T00:55:49.194Z,15.37
2022-11-06T00:58:18.958Z,15.90
2022-11-06T01:00:47.573Z,16.00
2022-11-06T01:03:16.031Z,15.13
2022-11-06T01:05:44.407Z,14.87
2022-11-06T01:08:13.018Z,15.87
2022-11-06T01:10:41.653Z,16.20
2022-11-06T01:13:10.058Z,14.17
2022-11-06T01:15:39.806Z,15.27
2022-11-06T01:18:08.221Z,15.67
2022-11-06T01:20:38.956Z,15.23
2022-11-06T01:23:07.365Z,15.67
2022-11-06T01:25:35.753Z,14.83
2022-11-06T01:28:04.241Z,15.17
2022-11-06T01:30:32.617Z,15.30
2022-11-06T01:33:02.459Z,13.80
2022-11-06T01:35:30.920Z,14.60
2022-11-06T01:37:59.311Z,15.60
2022-11-06T01:40:27.705Z,14.93
2022-11-06T01:42:56.093Z,15.90
2022-11-06T01:45:31.246Z,15.77
2022-11-06T01:47:59.672Z,13.63
2022-11-06T01:50:29.486Z,14.70
2022-11-06T01:53:00.853Z,13.57
2022-11-06T01:55:31.333Z,14.10
2022-11-06T01:58:01.493Z,14.37
2022-11-06T02:00:31.124Z,15.27
2022-11-06T02:02:59.885Z,14.20
2022-11-06T02:05:29.831Z,15.13
2022-11-06T02:07:59.233Z,14.83
2022-11-06T02:10:27.987Z,13.33
2022-11-06T02:13:03.577Z,11.73
2022-11-06T02:15:37.509Z,13.00
2022-11-06T02:18:12.222Z,13.47
2022-11-06T02:20:48.262Z,12.23
2022-11-06T02:23:27.169Z,11.93
2022-11-06T02:26:00.547Z,12.50
2022-11-06T02:28:33.184Z,11.87
2022-11-06T02:31:02.587Z,13.87
2022-11-06T02:33:32.294Z,12.20
2022-11-06T02:36:03.063Z,13.87
2022-11-06T02:38:33.819Z,10.67
2022-11-06T02:41:05.081Z,11.40
2022-11-06T02:47:30.541Z,11.10
2022-11-06T02:50:00.954Z,10.93
2022-11-06T02:52:31.374Z,11.17
2022-11-06T02:55:03.239Z,10.90
2022-11-06T02:57:35.618Z,9.97
2022-11-06T03:00:05.433Z,10.53
2022-11-06T03:02:38.347Z,10.70
2022-11-06T03:05:10.311Z,9.77
2022-11-06T03:07:40.720Z,10.73
2022-11-06T03:10:09.872Z,11.23
2022-11-06T03:12:41.158Z,12.50
2022-11-06T03:15:14.534Z,11.20
2022-11-06T03:17:46.880Z,20.20
2022-11-06T03:20:20.988Z,12.47
2022-11-06T03:22:51.571Z,11.47
2022-11-06T03:25:22.882Z,10.97
2022-11-06T03:27:58.279Z,11.43
2022-11-06T03:30:26.691Z,11.03
2022-11-06T03:32:59.218Z,10.50
2022-11-06T03:35:29.928Z,10.10
2022-11-06T03:38:00.077Z,11.03
2022-11-06T03:40:30.543Z,11.60
2022-11-06T03:43:01.072Z,12.80
2022-11-06T03:45:29.827Z,13.27
2022-11-06T03:48:02.146Z,13.20
2022-11-06T03:50:32.445Z,13.60
2022-11-06T03:53:02.908Z,10.30
2022-11-06T03:55:34.204Z,11.07
2022-11-06T03:58:05.486Z,11.40
2022-11-06T04:00:36.465Z,14.13
2022-11-06T04:03:08.175Z,12.13
2022-11-06T04:05:38.143Z,11.60
2022-11-06T04:08:25.703Z,9.90
2022-11-06T04:11:13.562Z,12.57
2022-11-06T04:14:02.187Z,13.23
2022-11-06T04:16:33.724Z,11.00
2022-11-06T04:19:04.053Z,9.60
2022-11-06T04:21:42.539Z,9.57
2022-11-06T04:24:32.991Z,7.17
2022-11-06T04:27:15.821Z,10.63
2022-11-06T04:29:48.061Z,11.20
2022-11-06T04:32:19.292Z,10.77
2022-11-06T04:34:52.160Z,8.37
2022-11-06T04:37:23.276Z,9.00
2022-11-06T04:39:55.736Z,10.27
2022-11-06T04:42:25.960Z,8.93
2022-11-06T04:44:57.210Z,9.00
2022-11-06T04:47:25.952Z,7.83
2022-11-06T04:49:58.250Z,8.27
2022-11-06T04:52:28.417Z,8.70
2022-11-06T04:54:57.574Z,9.13
2022-11-06T04:57:26.342Z,7.70
2022-11-06T04:59:56.860Z,9.13
2022-11-06T05:02:25.390Z,8.43
2022-11-06T05:04:53.849Z,10.80
2022-11-06T05:07:23.654Z,9.13
2022-11-06T05:09:52.163Z,8.30
2022-11-06T05:12:20.665Z,8.27
2022-11-06T05:14:49.042Z,7.33
2022-11-06T05:17:17.438Z,8.10
2022-11-06T05:19:45.836Z,7.87
2022-11-06T05:22:34.851Z,7.93
2022-11-06T05:25:04.790Z,7.60
2022-11-06T05:27:33.243Z,8.57
2022-11-06T05:30:01.667Z,8.67
2022-11-06T05:32:31.294Z,10.07
2022-11-06T05:34:59.823Z,6.30
2022-11-06T05:37:29.225Z,9.03
2022-11-06T05:39:57.661Z,8.80
2022-11-06T05:42:27.453Z,6.93
2022-11-06T05:44:55.850Z,7.70
2022-11-06T05:47:24.263Z,6.90
2022-11-06T05:49:52.765Z,6.70
2022-11-06T05:52:21.223Z,6.57
2022-11-06T05:54:49.636Z,6.37
2022-11-06T05:57:18.198Z,5.80
2022-11-06T05:59:47.977Z,5.20
2022-11-06T06:02:16.488Z,5.10
2022-11-06T06:04:44.995Z,5.80
2022-11-06T06:07:13.447Z,5.43
2022-11-06T06:09:41.827Z,6.47
2022-11-06T06:12:10.746Z,7.60
2022-11-06T06:14:39.162Z,7.13
2022-11-06T06:17:09.108Z,5.93
2022-11-06T06:19:37.497Z,6.80
2022-11-06T06:22:06.101Z,8.00
2022-11-06T06:24:35.351Z,8.17
2022-11-06T06:27:04.096Z,7.10
2022-11-06T06:29:32.749Z,7.97
2022-11-06T06:32:01.347Z,6.10
2022-11-06T06:34:31.166Z,5.40
2022-11-06T06:36:59.605Z,7.07
2022-11-06T06:39:28.266Z,7.80
2022-11-06T06:41:56.857Z,6.00
2022-11-06T06:44:25.261Z,6.13
2022-11-06T06:46:53.722Z,6.50
2022-11-06T06:49:22.278Z,7.23
2022-11-06T06:51:52.314Z,8.67
2022-11-06T06:54:20.758Z,6.37
2022-11-06T06:56:49.635Z,7.23
2022-11-06T06:59:18.170Z,7.30
2022-11-06T07:01:46.799Z,6.83
2022-11-06T07:04:15.395Z,7.67
2022-11-06T07:06:43.874Z,9.80
2022-11-06T07:09:13.654Z,6.73
2022-11-06T07:11:42.082Z,7.00
2022-11-06T07:14:11.695Z,6.90
2022-11-06T07:16:40.080Z,8.40
2022-11-06T07:19:08.530Z,7.87
2022-11-06T07:21:36.954Z,8.03
2022-11-06T07:24:05.570Z,8.00
2022-11-06T07:26:35.415Z,7.50
2022-11-06T07:29:03.877Z,8.77
2022-11-06T07:31:32.558Z,7.00
2022-11-06T07:34:01.012Z,12.00
2022-11-06T07:36:30.603Z,8.53
2022-11-06T07:38:59.749Z,13.20
2022-11-06T07:41:28.365Z,15.80
2022-11-06T07:43:58.391Z,8.60
2022-11-06T07:46:26.827Z,7.17
2022-11-06T07:48:55.802Z,8.17
2022-11-06T07:51:24.216Z,9.80
2022-11-06T07:53:52.650Z,7.07
2022-11-06T07:56:21.074Z,7.43
2022-11-06T07:58:49.490Z,7.03
2022-11-06T08:01:19.639Z,7.60
2022-11-06T08:03:48.210Z,8.27
2022-11-06T08:06:16.627Z,7.37
2022-11-06T08:08:45.054Z,9.33
2022-11-06T08:11:13.843Z,8.73
2022-11-06T08:13:42.561Z,8.27
2022-11-06T08:16:11.694Z,8.90
2022-11-06T08:18:41.608Z,8.80
2022-11-06T08:21:10.076Z,7.80
2022-11-06T08:23:38.871Z,9.60
2022-11-06T08:26:07.925Z,9.70
2022-11-06T08:28:36.717Z,11.13
2022-11-06T08:31:05.695Z,10.43
2022-11-06T08:33:34.475Z,11.87
2022-11-06T08:36:04.498Z,10.67
2022-11-06T08:38:32.981Z,10.77
2022-11-06T08:41:05.652Z,11.40
2022-11-06T08:43:34.149Z,13.77
2022-11-06T08:46:02.792Z,14.63
2022-11-06T08:48:33.377Z,13.97
2022-11-06T08:51:01.992Z,12.50
2022-11-06T08:53:31.906Z,13.57
2022-11-06T08:56:00.479Z,14.30
2022-11-06T08:58:29.098Z,12.33
2022-11-06T09:00:57.539Z,12.23
2022-11-06T09:03:26.024Z,14.03
2022-11-06T09:05:54.579Z,12.70
2022-11-06T09:08:24.201Z,12.70
2022-11-06T09:10:58.458Z,12.13
2022-11-06T09:13:27.402Z,12.27
2022-11-06T09:15:55.813Z,12.03
2022-11-06T09:18:24.206Z,11.17
2022-11-06T09:20:55.717Z,12.07
2022-11-06T09:23:24.305Z,13.70
2022-11-06T09:25:54.164Z,15.27
2022-11-06T09:28:22.694Z,12.33
2022-11-06T09:30:51.344Z,14.67
2022-11-06T09:33:20.483Z,14.43
2022-11-06T09:35:49.299Z,14.53
2022-11-06T09:38:19.239Z,11.87
2022-11-06T09:40:49.887Z,14.07
2022-11-06T09:43:50.258Z,13.53
2022-11-06T09:46:20.106Z,12.77
2022-11-06T09:48:52.576Z,14.40
2022-11-06T09:51:27.918Z,13.50
2022-11-06T09:53:58.213Z,12.77
2022-11-06T09:56:29.715Z,13.33
2022-11-06T09:59:00.104Z,11.93
2022-11-06T10:01:31.069Z,14.03
2022-11-06T10:04:01.272Z,11.40
2022-11-06T10:06:29.991Z,11.57
2022-11-06T10:08:59.855Z,11.67
2022-11-06T10:11:33.112Z,11.37
2022-11-06T10:14:05.417Z,12.07
2022-11-06T10:16:37.006Z,10.77
2022-11-06T10:19:10.681Z,11.90
2022-11-06T10:21:45.535Z,10.27
2022-11-06T10:24:22.134Z,11.13
2022-11-06T10:26:53.542Z,10.63
2022-11-06T10:29:40.018Z,10.60
2022-11-06T10:32:18.113Z,11.83
2022-11-06T10:34:48.286Z,11.70
2022-11-06T10:37:18.685Z,10.70
2022-11-06T10:39:47.468Z,10.47
2022-11-06T10:42:17.834Z,10.90
2022-11-06T10:44:48.246Z,10.67
2022-11-06T10:47:20.200Z,10.30
2022-11-06T10:49:50.778Z,10.97
2022-11-06T10:52:26.676Z,9.87
2022-11-06T10:55:01.434Z,10.60
2022-11-06T10:57:33.813Z,10.53
2022-11-06T11:00:02.219Z,10.70
2022-11-06T11:02:33.744Z,9.07
2022-11-06T11:05:02.199Z,10.90
2022-11-06T11:07:32.699Z,10.47
2022-11-06T11:10:02.474Z,10.27
2022-11-06T11:12:32.951Z,10.33
2022-11-06T11:15:12.391Z,10.20
2022-11-06T11:17:43.543Z,10.63
2022-11-06T11:20:31.210Z,10.37
2022-11-06T11:23:14.186Z,9.27
2022-11-06T11:25:43.471Z,10.17
2022-11-06T11:28:22.498Z,9.97
2022-11-06T11:30:53.257Z,10.13
2022-11-06T11:33:24.381Z,9.83
2022-11-06T11:35:52.781Z,9.53
2022-11-06T11:38:22.807Z,11.57
2022-11-06T11:40:51.697Z,9.90
2022-11-06T11:43:27.687Z,9.63
2022-11-06T11:46:06.901Z,9.20
2022-11-06T11:48:47.591Z,8.57
2022-11-06T11:51:30.229Z,9.83
2022-11-06T11:54:00.830Z,9.30
2022-11-06T11:56:50.083Z,10.27
2022-11-06T11:59:20.120Z,9.30
2022-11-06T12:01:49.138Z,10.20
2022-11-06T12:04:24.925Z,9.73
2022-11-06T12:06:55.705Z,9.23
2022-11-06T12:09:25.048Z,9.90
2022-11-06T12:11:54.595Z,10.70
2022-11-06T12:14:28.407Z,10.87
2022-11-06T12:16:58.952Z,10.63
2022-11-06T12:19:30.810Z,10.67
2022-11-06T12:22:01.180Z,10.73
2022-11-06T12:24:32.421Z,10.03
2022-11-06T12:27:04.309Z,10.80
2022-11-06T12:29:34.368Z,10.97
2022-11-06T12:32:05.708Z,10.43
2022-11-06T12:34:36.869Z,11.33
2022-11-06T12:37:15.687Z,10.73
2022-11-06T12:39:46.226Z,11.30
2022-11-06T12:42:16.281Z,10.73
2022-11-06T12:44:44.737Z,10.40
2022-11-06T12:47:16.709Z,10.10
2022-11-06T12:50:00.028Z,10.70
2022-11-06T12:52:32.611Z,10.87
2022-11-06T12:55:09.496Z,10.63
2022-11-06T12:57:43.420Z,11.27
2022-11-06T13:00:13.353Z,10.33
2022-11-06T13:02:51.844Z,10.77
2022-11-06T13:05:22.016Z,10.13
2022-11-06T13:07:59.289Z,10.57
2022-11-06T13:10:35.043Z,10.57
2022-11-06T13:13:15.242Z,10.87
2022-11-06T13:15:48.485Z,10.30
2022-11-06T13:18:18.695Z,10.00
2022-11-06T13:20:51.857Z,10.93
2022-11-06T13:23:26.794Z,11.50
2022-11-06T13:25:57.408Z,9.77
2022-11-06T13:28:31.304Z,9.43
2022-11-06T13:31:00.296Z,9.70
2022-11-06T13:33:30.247Z,9.00
2022-11-06T13:36:00.571Z,9.40
2022-11-06T13:38:31.534Z,9.80
2022-11-06T13:41:03.675Z,9.30
2022-11-06T13:43:35.842Z,9.30
2022-11-06T13:46:07.941Z,9.17
2022-11-06T13:48:39.662Z,8.97
2022-11-06T13:51:11.699Z,8.07
2022-11-06T13:53:46.215Z,7.80
2022-11-06T13:56:18.804Z,7.53
2022-11-06T13:58:55.994Z,6.50
2022-11-06T14:01:32.897Z,7.67
2022-11-06T14:04:15.859Z,6.50
2022-11-06T14:06:44.730Z,6.60
2022-11-06T14:09:18.884Z,5.43
2022-11-06T14:11:52.784Z,6.83
2022-11-06T14:14:25.720Z,7.20
2022-11-06T14:17:09.017Z,5.33
2022-11-06T14:19:38.131Z,4.67
2022-11-06T14:22:19.942Z,4.53
2022-11-06T14:24:49.756Z,5.40
2022-11-06T14:27:33.066Z,5.10
2022-11-06T14:30:03.103Z,5.17
2022-11-06T14:32:36.030Z,5.17
2022-11-06T14:35:19.346Z,4.90
2022-11-06T14:37:48.655Z,4.83
2022-11-06T14:40:32.890Z,4.80
2022-11-06T14:43:01.400Z,4.50
2022-11-06T14:45:29.848Z,4.90
2022-11-06T14:47:59.500Z,5.40
2022-11-06T14:50:29.269Z,5.33
2022-11-06T14:52:59.462Z,5.53
2022-11-06T14:55:31.000Z,5.23
2022-11-06T14:58:00.782Z,4.70
2022-11-06T15:00:37.336Z,4.50
2022-11-06T15:03:07.437Z,5.00
2022-11-06T15:05:42.111Z,4.70
2022-11-06T15:08:11.351Z,5.70
2022-11-06T15:10:51.727Z,5.60
2022-11-06T15:13:31.174Z,4.77
2022-11-06T15:16:04.922Z,5.83
2022-11-06T15:18:36.776Z,5.50
2022-11-06T15:21:06.897Z,5.33
2022-11-06T15:23:39.871Z,5.10
2022-11-06T15:26:17.167Z,5.50
2022-11-06T15:28:47.231Z,5.40
2022-11-06T15:31:16.829Z,5.33
2022-11-06T15:33:55.548Z,5.50
2022-11-06T15:36:24.814Z,6.17
2022-11-06T15:38:53.449Z,5.90
2022-11-06T15:41:24.981Z,6.00
2022-11-06T15:43:54.932Z,5.87
2022-11-06T15:46:24.799Z,5.73
2022-11-06T15:49:09.366Z,4.80
2022-11-06T15:51:40.780Z,6.80
2022-11-06T15:54:14.623Z,7.13
2022-11-06T15:56:45.253Z,7.23
2022-11-06T15:59:14.583Z,7.60
2022-11-06T16:01:44.974Z,8.00
2022-11-06T16:04:16.784Z,6.27
2022-11-06T16:06:47.629Z,7.70
2022-11-06T16:09:18.141Z,6.40
2022-11-06T16:11:49.528Z,7.50
2022-11-06T16:14:18.375Z,6.63
2022-11-06T16:16:48.881Z,6.43
2022-11-06T16:19:23.583Z,6.63
2022-11-06T16:21:53.569Z,8.00
2022-11-06T16:24:22.090Z,7.17
2022-11-06T16:26:52.746Z,8.60
2022-11-06T16:29:22.473Z,9.67
2022-11-06T16:31:51.530Z,8.80
2022-11-06T16:34:23.639Z,9.13
2022-11-06T16:36:53.639Z,9.07
2022-11-06T16:39:50.848Z,8.30
2022-11-06T16:42:25.497Z,9.30
2022-11-06T16:45:01.159Z,8.27
2022-11-06T16:47:30.016Z,8.57
2022-11-06T16:49:59.672Z,10.17
2022-11-06T16:52:29.180Z,9.10
2022-11-06T16:54:59.390Z,8.77
2022-11-06T16:57:30.263Z,10.33
2022-11-06T17:00:00.378Z,10.00
2022-11-06T17:02:30.639Z,9.77
2022-11-06T17:05:13.435Z,7.60
2022-11-06T17:07:42.324Z,9.43
2022-11-06T17:10:26.819Z,8.33
2022-11-06T17:12:56.743Z,6.53
2022-11-06T17:15:25.481Z,7.23
2022-11-06T17:17:54.056Z,7.87
2022-11-06T17:20:22.653Z,8.53
2022-11-06T17:22:51.137Z,7.30
2022-11-06T17:25:19.952Z,8.13
2022-11-06T17:27:48.372Z,7.50
2022-11-06T17:30:18.136Z,5.83
2022-11-06T17:32:46.569Z,7.37
2022-11-06T17:35:15.007Z,5.77
2022-11-06T17:37:43.504Z,5.90
2022-11-06T17:40:12.732Z,5.83
2022-11-06T17:42:41.403Z,5.97
2022-11-06T17:45:10.286Z,6.20
2022-11-06T17:47:40.098Z,7.37
2022-11-06T17:50:09.326Z,7.07
2022-11-06T17:52:37.948Z,6.90
2022-11-06T17:55:07.152Z,8.73
2022-11-06T17:57:35.603Z,6.93
2022-11-06T18:00:04.178Z,8.67
2022-11-06T18:03:00.571Z,7.40
2022-11-06T18:05:29.173Z,8.97
2022-11-06T18:07:57.599Z,8.00
2022-11-06T18:10:30.406Z,8.93
2022-11-06T18:12:59.383Z,8.53
2022-11-06T18:15:27.980Z,10.63
2022-11-06T18:17:57.870Z,10.47
2022-11-06T18:20:26.533Z,9.03
2022-11-06T18:22:54.954Z,9.90
2022-11-06T18:25:23.396Z,8.43
2022-11-06T18:27:52.036Z,8.40
2022-11-06T18:30:20.615Z,8.90
2022-11-06T18:32:49.390Z,8.83
2022-11-06T18:35:19.213Z,10.10
2022-11-06T18:37:50.451Z,8.27
2022-11-06T18:40:18.868Z,8.97
2022-11-06T18:42:53.836Z,9.20
2022-11-06T18:45:25.209Z,9.67
2022-11-06T18:47:53.789Z,9.10
2022-11-06T18:50:23.538Z,9.70
2022-11-06T18:52:58.011Z,9.37
2022-11-06T18:55:26.809Z,9.70
2022-11-06T18:57:55.296Z,11.03
2022-11-06T19:00:23.914Z,10.70
2022-11-06T19:02:53.284Z,9.40
2022-11-06T19:05:22.153Z,9.47
2022-11-06T19:07:56.330Z,10.77
2022-11-06T19:10:29.501Z,9.93
2022-11-06T19:12:59.657Z,9.50
2022-11-06T19:15:29.637Z,7.97
2022-11-06T19:17:58.151Z,8.70
2022-11-06T19:20:26.618Z,8.30
2022-11-06T19:22:56.463Z,7.47
2022-11-06T19:25:25.287Z,7.57
2022-11-06T19:27:55.328Z,9.77
2022-11-06T19:30:23.767Z,8.80
2022-11-06T19:32:52.169Z,9.43
2022-11-06T19:35:20.884Z,7.10
2022-11-06T19:37:49.299Z,7.37
2022-11-06T19:40:19.816Z,7.00
2022-11-06T19:42:48.400Z,8.80
2022-11-06T19:45:16.980Z,7.87
2022-11-06T19:47:45.416Z,7.37
2022-11-06T19:50:14.266Z,7.30
2022-11-06T19:52:45.542Z,6.63
2022-11-06T19:55:26.205Z,7.40
2022-11-06T19:57:59.257Z,5.97
2022-11-06T20:00:27.674Z,5.10
2022-11-06T20:02:56.110Z,5.10
2022-11-06T20:05:24.656Z,4.67
2022-11-06T20:07:53.428Z,5.03
2022-11-06T20:10:21.848Z,5.00
2022-11-06T20:12:50.283Z,4.40
2022-11-06T20:15:23.966Z,4.30
2022-11-06T20:17:52.927Z,5.27
2022-11-06T20:20:21.509Z,4.67
2022-11-06T20:22:49.949Z,4.57
2022-11-06T20:25:18.442Z,4.80
2022-11-06T20:27:47.009Z,4.60
2022-11-06T20:30:16.987Z,4.20
2022-11-06T20:32:46.816Z,4.20
2022-11-06T20:35:17.011Z,4.30
2022-11-06T20:37:45.690Z,4.10
2022-11-06T20:40:14.335Z,4.30
2022-11-06T20:42:42.771Z,4.20
2022-11-06T20:45:11.584Z,4.13
2022-11-06T20:47:40.045Z,4.17
2022-11-06T20:50:10.188Z,3.80
2022-11-06T20:52:41.413Z,4.10
2022-11-06T20:55:10.198Z,4.20
2022-11-06T20:57:38.899Z,3.60
2022-11-06T21:00:10.239Z,3.50
2022-11-06T21:02:39.042Z,3.70
2022-11-06T21:05:07.751Z,3.77
2022-11-06T21:07:37.547Z,3.10
2022-11-06T21:10:06.325Z,3.57
2022-11-06T21:12:34.861Z,3.30
2022-11-06T21:15:03.359Z,2.70
2022-11-06T21:17:31.869Z,3.30
2022-11-06T21:20:00.640Z,2.90
2022-11-06T21:22:29.070Z,2.80
2022-11-06T21:24:58.859Z,2.17
2022-11-06T21:27:27.298Z,2.07
2022-11-06T21:29:57.208Z,2.20
2022-11-06T21:32:25.671Z,2.10
2022-11-06T21:34:54.244Z,2.07
2022-11-06T21:37:32.812Z,2.37
2022-11-06T21:40:02.800Z,1.80
2022-11-06T21:42:31.389Z,2.40
2022-11-06T21:45:00.207Z,2.70
2022-11-06T21:47:29.788Z,2.50
2022-11-06T21:49:58.238Z,2.60
2022-11-06T21:52:52.951Z,2.40
2022-11-06T21:55:41.872Z,2.77
2022-11-06T21:58:10.528Z,3.60
2022-11-06T22:00:40.093Z,2.60
2022-11-06T22:03:09.032Z,2.57
2022-11-06T22:05:37.552Z,2.53
2022-11-06T22:08:06.745Z,2.80
2022-11-06T22:10:36.891Z,2.73
2022-11-06T22:13:05.365Z,3.00
2022-11-06T22:15:33.841Z,3.00
2022-11-06T22:18:02.281Z,3.10
2022-11-06T22:20:30.800Z,3.00
2022-11-06T22:22:59.231Z,2.73
2022-11-06T22:25:27.619Z,2.73
2022-11-06T22:27:57.390Z,2.30
2022-11-06T22:30:25.769Z,2.63
2022-11-06T22:32:54.319Z,3.00
2022-11-06T22:35:22.752Z,3.07
2022-11-06T22:37:51.192Z,2.50
2022-11-06T22:40:19.594Z,2.57
2022-11-06T22:42:50.013Z,2.80
2022-11-06T22:45:21.359Z,2.40
2022-11-06T22:47:50.158Z,2.57
2022-11-06T22:50:18.595Z,2.67
2022-11-06T22:52:47.474Z,2.50
2022-11-06T22:55:15.992Z,2.17
2022-11-06T22:57:44.450Z,2.63
2022-11-06T23:00:13.633Z,2.30
2022-11-06T23:02:43.567Z,2.07
2022-11-06T23:05:12.075Z,2.20
2022-11-06T23:07:40.507Z,1.80
2022-11-06T23:10:09.655Z,2.40
2022-11-06T23:12:38.158Z,1.90
2022-11-06T23:15:07.167Z,2.13
2022-11-06T23:17:37.499Z,1.80
2022-11-06T23:20:07.809Z,2.00
2022-11-06T23:22:39.533Z,1.83
2022-11-06T23:25:08.634Z,2.00
2022-11-06T23:27:37.439Z,1.70
2022-11-06T23:30:07.415Z,1.80
2022-11-06T23:32:37.126Z,1.70
2022-11-06T23:35:12.943Z,1.50
2022-11-06T23:37:41.762Z,1.93
2022-11-06T23:40:10.980Z,1.77
2022-11-06T23:42:39.540Z,1.70
2022-11-06T23:45:26.267Z,1.80
2022-11-06T23:47:54.925Z,1.70
2022-11-06T23:50:24.716Z,1.70
2022-11-06T23:52:53.188Z,1.70
2022-11-06T23:55:21.582Z,1.80
2022-11-06T23:57:50.003Z,1.60
